sensor_id;sensor_type;location;lat;lon;timestamp;temperature;humidity
702;DHT22;334;48.808;9.222;2022-07-21T00:00:05;24.70;17.70
702;DHT22;334;48.808;9.222;2022-07-21T00:01:09;24.70;17.80
702;DHT22;334;48.808;9.222;2022-07-21T00:02:11;24.70;17.70
702;DHT22;334;48.808;9.222;2022-07-21T00:03:13;24.90;17.80
702;DHT22;334;48.808;9.222;2022-07-21T00:04:16;24.70;17.60
702;DHT22;334;48.808;9.222;2022-07-21T00:05:18;24.70;17.60
702;DHT22;334;48.808;9.222;2022-07-21T00:06:20;24.70;17.60
702;DHT22;334;48.808;9.222;2022-07-21T00:07:22;24.70;17.60
702;DHT22;334;48.808;9.222;2022-07-21T00:08:24;24.70;17.60
702;DHT22;334;48.808;9.222;2022-07-21T00:09:26;24.70;17.70
702;DHT22;334;48.808;9.222;2022-07-21T00:10:28;24.70;17.90
702;DHT22;334;48.808;9.222;2022-07-21T00:11:29;24.70;17.80
702;DHT22;334;48.808;9.222;2022-07-21T00:12:31;24.60;18.10
702;DHT22;334;48.808;9.222;2022-07-21T00:13:33;24.60;18.20
702;DHT22;334;48.808;9.222;2022-07-21T00:14:35;24.60;18.20
702;DHT22;334;48.808;9.222;2022-07-21T00:15:36;24.60;18.70
702;DHT22;334;48.808;9.222;2022-07-21T00:16:40;24.60;18.60
702;DHT22;334;48.808;9.222;2022-07-21T00:17:42;24.60;18.60
702;DHT22;334;48.808;9.222;2022-07-21T00:18:44;24.60;18.60
702;DHT22;334;48.808;9.222;2022-07-21T00:19:46;24.60;18.60
702;DHT22;334;48.808;9.222;2022-07-21T00:20:48;24.60;18.60
702;DHT22;334;48.808;9.222;2022-07-21T00:21:50;24.60;18.60
702;DHT22;334;48.808;9.222;2022-07-21T00:22:52;24.50;19.20
702;DHT22;334;48.808;9.222;2022-07-21T00:23:54;24.50;19.10
702;DHT22;334;48.808;9.222;2022-07-21T00:24:56;24.50;19.30
702;DHT22;334;48.808;9.222;2022-07-21T00:26:00;24.50;19.40
702;DHT22;334;48.808;9.222;2022-07-21T00:27:01;24.50;19.40
702;DHT22;334;48.808;9.222;2022-07-21T00:28:04;24.50;19.40
702;DHT22;334;48.808;9.222;2022-07-21T00:29:06;24.50;19.60
702;DHT22;334;48.808;9.222;2022-07-21T00:30:09;24.50;19.40
702;DHT22;334;48.808;9.222;2022-07-21T00:31:13;24.40;19.30
702;DHT22;334;48.808;9.222;2022-07-21T00:32:15;24.30;18.80
702;DHT22;334;48.808;9.222;2022-07-21T00:33:17;24.30;18.50
702;DHT22;334;48.808;9.222;2022-07-21T00:34:20;24.30;18.60
702;DHT22;334;48.808;9.222;2022-07-21T00:35:22;24.20;18.80
702;DHT22;334;48.808;9.222;2022-07-21T00:36:24;24.40;19.10
702;DHT22;334;48.808;9.222;2022-07-21T00:37:26;24.20;19.30
702;DHT22;334;48.808;9.222;2022-07-21T00:38:30;24.20;19.50
702;DHT22;334;48.808;9.222;2022-07-21T00:39:32;24.10;19.10
702;DHT22;334;48.808;9.222;2022-07-21T00:40:33;24.20;19.00
702;DHT22;334;48.808;9.222;2022-07-21T00:41:35;24.10;18.90
702;DHT22;334;48.808;9.222;2022-07-21T00:42:37;24.10;18.70
702;DHT22;334;48.808;9.222;2022-07-21T00:43:39;24.10;18.70
702;DHT22;334;48.808;9.222;2022-07-21T00:44:41;24.10;18.30
702;DHT22;334;48.808;9.222;2022-07-21T00:45:42;24.20;18.30
702;DHT22;334;48.808;9.222;2022-07-21T00:46:45;24.30;18.40
702;DHT22;334;48.808;9.222;2022-07-21T00:47:46;24.10;18.30
702;DHT22;334;48.808;9.222;2022-07-21T00:48:48;24.10;18.70
702;DHT22;334;48.808;9.222;2022-07-21T00:49:53;24.00;18.40
702;DHT22;334;48.808;9.222;2022-07-21T00:50:55;24.00;18.70
702;DHT22;334;48.808;9.222;2022-07-21T00:51:56;24.10;18.80
702;DHT22;334;48.808;9.222;2022-07-21T00:52:58;24.10;19.30
702;DHT22;334;48.808;9.222;2022-07-21T00:54:00;24.10;19.70
702;DHT22;334;48.808;9.222;2022-07-21T00:55:04;24.10;19.10
702;DHT22;334;48.808;9.222;2022-07-21T00:56:06;24.20;19.30
702;DHT22;334;48.808;9.222;2022-07-21T00:57:08;24.20;19.20
702;DHT22;334;48.808;9.222;2022-07-21T00:58:10;24.30;19.30
702;DHT22;334;48.808;9.222;2022-07-21T00:59:12;24.20;19.00
702;DHT22;334;48.808;9.222;2022-07-21T01:00:18;24.30;18.70
702;DHT22;334;48.808;9.222;2022-07-21T01:01:20;24.20;18.40
702;DHT22;334;48.808;9.222;2022-07-21T01:02:22;24.20;18.30
702;DHT22;334;48.808;9.222;2022-07-21T01:03:24;24.40;18.70
702;DHT22;334;48.808;9.222;2022-07-21T01:04:26;24.20;18.70
702;DHT22;334;48.808;9.222;2022-07-21T01:05:28;24.20;18.30
702;DHT22;334;48.808;9.222;2022-07-21T01:06:30;24.20;18.80
702;DHT22;334;48.808;9.222;2022-07-21T01:07:32;24.20;19.10
702;DHT22;334;48.808;9.222;2022-07-21T01:08:34;24.10;18.90
702;DHT22;334;48.808;9.222;2022-07-21T01:09:36;24.10;19.10
702;DHT22;334;48.808;9.222;2022-07-21T01:10:39;24.10;19.30
702;DHT22;334;48.808;9.222;2022-07-21T01:11:41;24.10;19.10
702;DHT22;334;48.808;9.222;2022-07-21T01:12:45;24.00;18.20
702;DHT22;334;48.808;9.222;2022-07-21T01:13:47;24.00;18.20
702;DHT22;334;48.808;9.222;2022-07-21T01:14:49;24.00;18.20
702;DHT22;334;48.808;9.222;2022-07-21T01:15:51;24.00;18.20
702;DHT22;334;48.808;9.222;2022-07-21T01:16:53;24.00;18.20
702;DHT22;334;48.808;9.222;2022-07-21T01:17:55;24.10;18.30
702;DHT22;334;48.808;9.222;2022-07-21T01:18:58;24.10;18.80
702;DHT22;334;48.808;9.222;2022-07-21T01:20:04;24.10;18.30
702;DHT22;334;48.808;9.222;2022-07-21T01:21:35;24.10;18.30
702;DHT22;334;48.808;9.222;2022-07-21T01:22:40;24.10;18.30
702;DHT22;334;48.808;9.222;2022-07-21T01:23:42;24.00;18.10
702;DHT22;334;48.808;9.222;2022-07-21T01:24:44;24.00;17.90
702;DHT22;334;48.808;9.222;2022-07-21T01:25:47;23.90;18.10
702;DHT22;334;48.808;9.222;2022-07-21T01:26:51;23.90;17.90
702;DHT22;334;48.808;9.222;2022-07-21T01:27:54;24.00;18.00
702;DHT22;334;48.808;9.222;2022-07-21T01:28:56;23.90;17.80
702;DHT22;334;48.808;9.222;2022-07-21T01:30:03;24.00;17.80
702;DHT22;334;48.808;9.222;2022-07-21T01:31:10;24.00;18.00
702;DHT22;334;48.808;9.222;2022-07-21T01:32:12;24.00;17.70
702;DHT22;334;48.808;9.222;2022-07-21T01:33:14;24.00;17.60
702;DHT22;334;48.808;9.222;2022-07-21T01:34:16;24.00;17.50
702;DHT22;334;48.808;9.222;2022-07-21T01:35:20;24.00;17.50
702;DHT22;334;48.808;9.222;2022-07-21T01:36:22;24.00;17.60
702;DHT22;334;48.808;9.222;2022-07-21T01:37:28;24.10;17.70
702;DHT22;334;48.808;9.222;2022-07-21T01:38:30;24.00;18.00
702;DHT22;334;48.808;9.222;2022-07-21T01:39:51;24.00;17.40
702;DHT22;334;48.808;9.222;2022-07-21T01:41:11;24.10;17.40
702;DHT22;334;48.808;9.222;2022-07-21T01:42:32;24.00;17.10
702;DHT22;334;48.808;9.222;2022-07-21T01:43:34;24.00;17.30
702;DHT22;334;48.808;9.222;2022-07-21T01:44:37;24.00;17.20
702;DHT22;334;48.808;9.222;2022-07-21T01:45:40;23.90;17.00
702;DHT22;334;48.808;9.222;2022-07-21T01:46:48;23.90;17.30
702;DHT22;334;48.808;9.222;2022-07-21T01:47:50;23.90;17.60
702;DHT22;334;48.808;9.222;2022-07-21T01:48:53;23.90;17.20
702;DHT22;334;48.808;9.222;2022-07-21T01:49:57;23.90;17.40
702;DHT22;334;48.808;9.222;2022-07-21T01:50:59;23.90;17.10
702;DHT22;334;48.808;9.222;2022-07-21T01:52:00;23.90;17.10
702;DHT22;334;48.808;9.222;2022-07-21T01:53:02;23.90;16.90
702;DHT22;334;48.808;9.222;2022-07-21T01:54:05;23.90;17.30
702;DHT22;334;48.808;9.222;2022-07-21T01:55:08;23.90;17.70
702;DHT22;334;48.808;9.222;2022-07-21T01:56:10;24.10;17.90
702;DHT22;334;48.808;9.222;2022-07-21T01:57:12;24.00;17.70
702;DHT22;334;48.808;9.222;2022-07-21T01:58:13;24.00;18.20
702;DHT22;334;48.808;9.222;2022-07-21T01:59:15;24.00;17.90
702;DHT22;334;48.808;9.222;2022-07-21T02:00:17;24.00;17.30
702;DHT22;334;48.808;9.222;2022-07-21T02:01:21;24.00;17.20
702;DHT22;334;48.808;9.222;2022-07-21T02:02:24;24.00;17.20
702;DHT22;334;48.808;9.222;2022-07-21T02:03:25;24.00;16.90
702;DHT22;334;48.808;9.222;2022-07-21T02:04:29;23.90;16.60
702;DHT22;334;48.808;9.222;2022-07-21T02:05:33;23.90;16.60
702;DHT22;334;48.808;9.222;2022-07-21T02:06:35;23.90;16.40
702;DHT22;334;48.808;9.222;2022-07-21T02:07:38;23.90;16.60
702;DHT22;334;48.808;9.222;2022-07-21T02:08:41;23.90;16.70
702;DHT22;334;48.808;9.222;2022-07-21T02:09:45;23.90;16.70
702;DHT22;334;48.808;9.222;2022-07-21T02:10:47;24.00;17.70
702;DHT22;334;48.808;9.222;2022-07-21T02:11:49;24.00;18.00
702;DHT22;334;48.808;9.222;2022-07-21T02:12:51;24.00;18.10
702;DHT22;334;48.808;9.222;2022-07-21T02:13:53;24.00;18.20
702;DHT22;334;48.808;9.222;2022-07-21T02:14:55;24.00;18.20
702;DHT22;334;48.808;9.222;2022-07-21T02:15:57;24.10;17.70
702;DHT22;334;48.808;9.222;2022-07-21T02:17:00;24.10;16.90
702;DHT22;334;48.808;9.222;2022-07-21T02:18:02;24.10;16.20
702;DHT22;334;48.808;9.222;2022-07-21T02:19:08;24.00;15.90
702;DHT22;334;48.808;9.222;2022-07-21T02:20:10;24.00;15.90
702;DHT22;334;48.808;9.222;2022-07-21T02:21:12;23.90;15.90
702;DHT22;334;48.808;9.222;2022-07-21T02:22:14;23.90;15.80
702;DHT22;334;48.808;9.222;2022-07-21T02:23:18;23.80;16.00
702;DHT22;334;48.808;9.222;2022-07-21T02:24:21;23.80;16.20
702;DHT22;334;48.808;9.222;2022-07-21T02:25:22;24.00;16.70
702;DHT22;334;48.808;9.222;2022-07-21T02:26:24;23.80;16.50
702;DHT22;334;48.808;9.222;2022-07-21T02:27:26;23.80;16.70
702;DHT22;334;48.808;9.222;2022-07-21T02:28:28;23.90;17.50
702;DHT22;334;48.808;9.222;2022-07-21T02:29:30;23.80;17.40
702;DHT22;334;48.808;9.222;2022-07-21T02:30:31;23.80;17.20
702;DHT22;334;48.808;9.222;2022-07-21T02:31:34;23.80;18.10
702;DHT22;334;48.808;9.222;2022-07-21T02:32:35;23.70;18.00
702;DHT22;334;48.808;9.222;2022-07-21T02:33:37;23.70;18.00
702;DHT22;334;48.808;9.222;2022-07-21T02:34:41;23.70;18.00
702;DHT22;334;48.808;9.222;2022-07-21T02:35:43;23.70;18.00
702;DHT22;334;48.808;9.222;2022-07-21T02:36:46;23.60;18.00
702;DHT22;334;48.808;9.222;2022-07-21T02:37:48;23.60;18.00
702;DHT22;334;48.808;9.222;2022-07-21T02:38:50;23.60;18.00
702;DHT22;334;48.808;9.222;2022-07-21T02:39:53;23.60;18.00
702;DHT22;334;48.808;9.222;2022-07-21T02:40:55;23.60;18.80
702;DHT22;334;48.808;9.222;2022-07-21T02:41:58;23.60;18.80
702;DHT22;334;48.808;9.222;2022-07-21T02:43:00;23.60;19.90
702;DHT22;334;48.808;9.222;2022-07-21T02:44:02;23.60;19.50
702;DHT22;334;48.808;9.222;2022-07-21T02:45:06;23.50;19.60
702;DHT22;334;48.808;9.222;2022-07-21T02:46:09;23.50;19.70
702;DHT22;334;48.808;9.222;2022-07-21T02:47:11;23.50;20.10
702;DHT22;334;48.808;9.222;2022-07-21T02:48:13;23.50;20.30
702;DHT22;334;48.808;9.222;2022-07-21T02:49:15;23.50;20.50
702;DHT22;334;48.808;9.222;2022-07-21T02:50:17;23.50;20.80
702;DHT22;334;48.808;9.222;2022-07-21T02:51:19;23.50;20.80
702;DHT22;334;48.808;9.222;2022-07-21T02:52:21;23.40;20.80
702;DHT22;334;48.808;9.222;2022-07-21T02:53:22;23.40;20.80
702;DHT22;334;48.808;9.222;2022-07-21T02:54:25;23.40;20.60
702;DHT22;334;48.808;9.222;2022-07-21T02:55:27;23.40;20.70
702;DHT22;334;48.808;9.222;2022-07-21T02:56:29;23.40;20.90
702;DHT22;334;48.808;9.222;2022-07-21T02:57:31;23.40;21.00
702;DHT22;334;48.808;9.222;2022-07-21T02:58:36;23.50;20.90
702;DHT22;334;48.808;9.222;2022-07-21T02:59:38;23.50;20.90
702;DHT22;334;48.808;9.222;2022-07-21T03:00:43;23.50;20.90
702;DHT22;334;48.808;9.222;2022-07-21T03:01:45;23.50;21.10
702;DHT22;334;48.808;9.222;2022-07-21T03:02:48;23.50;20.90
702;DHT22;334;48.808;9.222;2022-07-21T03:03:50;23.50;21.10
702;DHT22;334;48.808;9.222;2022-07-21T03:04:53;23.50;20.90
702;DHT22;334;48.808;9.222;2022-07-21T03:05:57;23.50;21.20
702;DHT22;334;48.808;9.222;2022-07-21T03:06:59;23.50;20.90
702;DHT22;334;48.808;9.222;2022-07-21T03:08:00;23.50;20.50
702;DHT22;334;48.808;9.222;2022-07-21T03:09:02;23.40;20.10
702;DHT22;334;48.808;9.222;2022-07-21T03:10:04;23.60;20.20
702;DHT22;334;48.808;9.222;2022-07-21T03:11:07;23.40;20.20
702;DHT22;334;48.808;9.222;2022-07-21T03:12:10;23.40;20.20
702;DHT22;334;48.808;9.222;2022-07-21T03:13:13;23.40;20.00
702;DHT22;334;48.808;9.222;2022-07-21T03:14:15;23.40;20.30
702;DHT22;334;48.808;9.222;2022-07-21T03:15:17;23.40;20.80
702;DHT22;334;48.808;9.222;2022-07-21T03:16:18;23.40;20.50
702;DHT22;334;48.808;9.222;2022-07-21T03:17:22;23.40;20.30
702;DHT22;334;48.808;9.222;2022-07-21T03:18:24;23.40;20.80
702;DHT22;334;48.808;9.222;2022-07-21T03:19:25;23.60;21.60
702;DHT22;334;48.808;9.222;2022-07-21T03:20:29;23.50;21.70
702;DHT22;334;48.808;9.222;2022-07-21T03:21:31;23.50;21.70
702;DHT22;334;48.808;9.222;2022-07-21T03:22:33;23.60;21.60
702;DHT22;334;48.808;9.222;2022-07-21T03:23:36;23.60;21.40
702;DHT22;334;48.808;9.222;2022-07-21T03:24:38;23.60;21.70
702;DHT22;334;48.808;9.222;2022-07-21T03:25:40;23.60;21.70
702;DHT22;334;48.808;9.222;2022-07-21T03:26:42;23.60;21.70
702;DHT22;334;48.808;9.222;2022-07-21T03:27:45;23.60;21.40
702;DHT22;334;48.808;9.222;2022-07-21T03:28:47;23.60;20.00
702;DHT22;334;48.808;9.222;2022-07-21T03:29:55;23.60;19.50
702;DHT22;334;48.808;9.222;2022-07-21T03:30:57;23.50;19.40
702;DHT22;334;48.808;9.222;2022-07-21T03:31:58;23.60;19.40
702;DHT22;334;48.808;9.222;2022-07-21T03:33:00;23.50;19.50
702;DHT22;334;48.808;9.222;2022-07-21T03:34:02;23.50;19.60
702;DHT22;334;48.808;9.222;2022-07-21T03:35:08;23.50;19.50
702;DHT22;334;48.808;9.222;2022-07-21T03:36:10;23.50;19.40
702;DHT22;334;48.808;9.222;2022-07-21T03:37:12;23.60;19.50
702;DHT22;334;48.808;9.222;2022-07-21T03:38:14;23.50;19.90
702;DHT22;334;48.808;9.222;2022-07-21T03:39:16;23.50;20.40
702;DHT22;334;48.808;9.222;2022-07-21T03:40:19;23.50;20.30
702;DHT22;334;48.808;9.222;2022-07-21T03:41:24;23.50;20.20
702;DHT22;334;48.808;9.222;2022-07-21T03:42:26;23.60;20.20
702;DHT22;334;48.808;9.222;2022-07-21T03:43:28;23.40;20.00
702;DHT22;334;48.808;9.222;2022-07-21T03:44:30;23.40;20.00
702;DHT22;334;48.808;9.222;2022-07-21T03:45:33;23.40;19.90
702;DHT22;334;48.808;9.222;2022-07-21T03:46:35;23.50;20.30
702;DHT22;334;48.808;9.222;2022-07-21T03:47:37;23.50;20.50
702;DHT22;334;48.808;9.222;2022-07-21T03:48:39;23.40;20.70
702;DHT22;334;48.808;9.222;2022-07-21T03:49:41;23.40;20.70
702;DHT22;334;48.808;9.222;2022-07-21T03:50:43;23.40;20.70
702;DHT22;334;48.808;9.222;2022-07-21T03:51:45;23.50;20.90
702;DHT22;334;48.808;9.222;2022-07-21T03:52:47;23.40;20.90
702;DHT22;334;48.808;9.222;2022-07-21T03:53:49;23.40;21.20
702;DHT22;334;48.808;9.222;2022-07-21T03:54:51;23.30;20.90
702;DHT22;334;48.808;9.222;2022-07-21T03:56:16;23.40;20.80
702;DHT22;334;48.808;9.222;2022-07-21T03:57:18;23.50;21.80
702;DHT22;334;48.808;9.222;2022-07-21T03:58:20;23.40;21.60
702;DHT22;334;48.808;9.222;2022-07-21T03:59:22;23.50;22.10
702;DHT22;334;48.808;9.222;2022-07-21T04:00:35;23.50;22.60
702;DHT22;334;48.808;9.222;2022-07-21T04:01:38;23.50;22.90
702;DHT22;334;48.808;9.222;2022-07-21T04:02:41;23.70;22.60
702;DHT22;334;48.808;9.222;2022-07-21T04:03:46;23.60;22.10
702;DHT22;334;48.808;9.222;2022-07-21T04:04:48;23.80;21.90
702;DHT22;334;48.808;9.222;2022-07-21T04:05:50;23.60;21.70
702;DHT22;334;48.808;9.222;2022-07-21T04:06:51;23.60;21.60
702;DHT22;334;48.808;9.222;2022-07-21T04:07:55;23.60;21.80
702;DHT22;334;48.808;9.222;2022-07-21T04:08:57;23.70;21.80
702;DHT22;334;48.808;9.222;2022-07-21T04:10:00;23.60;22.10
702;DHT22;334;48.808;9.222;2022-07-21T04:11:02;23.70;22.10
702;DHT22;334;48.808;9.222;2022-07-21T04:12:04;23.70;21.80
702;DHT22;334;48.808;9.222;2022-07-21T04:13:07;23.60;21.60
702;DHT22;334;48.808;9.222;2022-07-21T04:14:09;23.60;21.80
702;DHT22;334;48.808;9.222;2022-07-21T04:15:13;23.60;21.70
702;DHT22;334;48.808;9.222;2022-07-21T04:16:16;23.60;22.30
702;DHT22;334;48.808;9.222;2022-07-21T04:17:25;23.60;22.30
702;DHT22;334;48.808;9.222;2022-07-21T04:18:27;23.80;22.40
702;DHT22;334;48.808;9.222;2022-07-21T04:19:30;23.70;22.30
702;DHT22;334;48.808;9.222;2022-07-21T04:20:33;23.70;22.20
702;DHT22;334;48.808;9.222;2022-07-21T04:21:35;23.70;22.00
702;DHT22;334;48.808;9.222;2022-07-21T04:22:37;23.70;22.20
702;DHT22;334;48.808;9.222;2022-07-21T04:23:41;23.80;21.90
702;DHT22;334;48.808;9.222;2022-07-21T04:24:43;23.80;22.20
702;DHT22;334;48.808;9.222;2022-07-21T04:25:45;23.80;21.90
702;DHT22;334;48.808;9.222;2022-07-21T04:26:46;23.90;22.00
702;DHT22;334;48.808;9.222;2022-07-21T04:27:49;24.00;22.00
702;DHT22;334;48.808;9.222;2022-07-21T04:28:51;24.00;22.10
702;DHT22;334;48.808;9.222;2022-07-21T04:29:54;23.80;22.40
702;DHT22;334;48.808;9.222;2022-07-21T04:30:55;24.00;22.60
702;DHT22;334;48.808;9.222;2022-07-21T04:31:58;23.80;22.30
702;DHT22;334;48.808;9.222;2022-07-21T04:33:00;23.80;21.90
702;DHT22;334;48.808;9.222;2022-07-21T04:34:01;23.80;21.60
702;DHT22;334;48.808;9.222;2022-07-21T04:35:05;23.90;21.60
702;DHT22;334;48.808;9.222;2022-07-21T04:36:08;23.80;21.50
702;DHT22;334;48.808;9.222;2022-07-21T04:37:09;23.80;21.30
702;DHT22;334;48.808;9.222;2022-07-21T04:38:11;23.80;21.20
702;DHT22;334;48.808;9.222;2022-07-21T04:39:14;23.80;21.20
702;DHT22;334;48.808;9.222;2022-07-21T04:40:16;23.80;21.30
702;DHT22;334;48.808;9.222;2022-07-21T04:41:18;23.90;21.30
702;DHT22;334;48.808;9.222;2022-07-21T04:42:20;23.80;21.40
702;DHT22;334;48.808;9.222;2022-07-21T04:43:22;23.90;21.90
702;DHT22;334;48.808;9.222;2022-07-21T04:44:24;23.80;22.30
702;DHT22;334;48.808;9.222;2022-07-21T04:45:26;24.00;21.80
702;DHT22;334;48.808;9.222;2022-07-21T04:46:28;23.80;21.70
702;DHT22;334;48.808;9.222;2022-07-21T04:47:30;23.80;21.90
702;DHT22;334;48.808;9.222;2022-07-21T04:48:32;23.80;21.90
702;DHT22;334;48.808;9.222;2022-07-21T04:49:33;23.80;22.90
702;DHT22;334;48.808;9.222;2022-07-21T04:50:35;23.70;22.60
702;DHT22;334;48.808;9.222;2022-07-21T04:51:37;23.70;22.30
702;DHT22;334;48.808;9.222;2022-07-21T04:52:39;23.70;22.80
702;DHT22;334;48.808;9.222;2022-07-21T04:53:41;23.70;22.80
702;DHT22;334;48.808;9.222;2022-07-21T04:54:43;23.70;23.30
702;DHT22;334;48.808;9.222;2022-07-21T04:55:44;23.70;23.40
702;DHT22;334;48.808;9.222;2022-07-21T04:56:47;23.70;23.30
702;DHT22;334;48.808;9.222;2022-07-21T04:57:51;23.70;23.00
702;DHT22;334;48.808;9.222;2022-07-21T04:58:53;23.80;23.10
702;DHT22;334;48.808;9.222;2022-07-21T04:59:55;23.80;23.10
702;DHT22;334;48.808;9.222;2022-07-21T05:00:56;23.80;23.20
702;DHT22;334;48.808;9.222;2022-07-21T05:01:59;23.80;23.30
702;DHT22;334;48.808;9.222;2022-07-21T05:03:03;23.80;23.10
702;DHT22;334;48.808;9.222;2022-07-21T05:04:05;23.90;23.10
702;DHT22;334;48.808;9.222;2022-07-21T05:05:09;23.90;22.90
702;DHT22;334;48.808;9.222;2022-07-21T05:06:11;23.80;22.80
702;DHT22;334;48.808;9.222;2022-07-21T05:07:13;23.80;22.40
702;DHT22;334;48.808;9.222;2022-07-21T05:08:15;23.80;22.80
702;DHT22;334;48.808;9.222;2022-07-21T05:09:19;23.90;22.60
702;DHT22;334;48.808;9.222;2022-07-21T05:10:21;23.90;22.40
702;DHT22;334;48.808;9.222;2022-07-21T05:11:23;23.90;22.30
702;DHT22;334;48.808;9.222;2022-07-21T05:12:26;23.90;22.40
702;DHT22;334;48.808;9.222;2022-07-21T05:13:27;23.90;22.30
702;DHT22;334;48.808;9.222;2022-07-21T05:14:29;23.90;21.90
702;DHT22;334;48.808;9.222;2022-07-21T05:15:32;24.10;22.00
702;DHT22;334;48.808;9.222;2022-07-21T05:16:34;24.00;21.50
702;DHT22;334;48.808;9.222;2022-07-21T05:17:36;23.90;21.20
702;DHT22;334;48.808;9.222;2022-07-21T05:18:38;24.00;21.40
702;DHT22;334;48.808;9.222;2022-07-21T05:19:40;24.00;21.40
702;DHT22;334;48.808;9.222;2022-07-21T05:20:43;24.00;21.40
702;DHT22;334;48.808;9.222;2022-07-21T05:21:44;24.00;21.50
702;DHT22;334;48.808;9.222;2022-07-21T05:22:46;24.00;21.60
702;DHT22;334;48.808;9.222;2022-07-21T05:23:49;24.00;21.40
702;DHT22;334;48.808;9.222;2022-07-21T05:24:51;24.00;21.10
702;DHT22;334;48.808;9.222;2022-07-21T05:25:53;24.00;20.80
702;DHT22;334;48.808;9.222;2022-07-21T05:27:02;24.10;20.60
702;DHT22;334;48.808;9.222;2022-07-21T05:28:07;24.10;20.60
702;DHT22;334;48.808;9.222;2022-07-21T05:29:09;24.10;20.70
702;DHT22;334;48.808;9.222;2022-07-21T05:30:12;24.10;20.50
702;DHT22;334;48.808;9.222;2022-07-21T05:31:14;24.10;20.50
702;DHT22;334;48.808;9.222;2022-07-21T05:32:15;24.10;20.20
702;DHT22;334;48.808;9.222;2022-07-21T05:33:17;24.20;20.00
702;DHT22;334;48.808;9.222;2022-07-21T05:34:19;24.20;19.80
702;DHT22;334;48.808;9.222;2022-07-21T05:35:21;24.20;19.70
702;DHT22;334;48.808;9.222;2022-07-21T05:36:23;24.20;19.90
702;DHT22;334;48.808;9.222;2022-07-21T05:37:25;24.30;19.90
702;DHT22;334;48.808;9.222;2022-07-21T05:38:30;24.30;19.70
702;DHT22;334;48.808;9.222;2022-07-21T05:39:32;24.40;19.10
702;DHT22;334;48.808;9.222;2022-07-21T05:40:33;24.40;18.80
702;DHT22;334;48.808;9.222;2022-07-21T05:41:52;24.40;18.50
702;DHT22;334;48.808;9.222;2022-07-21T05:42:54;24.50;18.50
702;DHT22;334;48.808;9.222;2022-07-21T05:43:56;24.50;18.30
702;DHT22;334;48.808;9.222;2022-07-21T05:44:58;24.50;18.10
702;DHT22;334;48.808;9.222;2022-07-21T05:46:04;24.50;18.00
702;DHT22;334;48.808;9.222;2022-07-21T05:47:06;24.50;17.70
702;DHT22;334;48.808;9.222;2022-07-21T05:48:08;24.50;17.50
702;DHT22;334;48.808;9.222;2022-07-21T05:49:10;24.50;17.40
702;DHT22;334;48.808;9.222;2022-07-21T05:50:12;24.50;17.50
702;DHT22;334;48.808;9.222;2022-07-21T05:51:15;24.50;17.60
702;DHT22;334;48.808;9.222;2022-07-21T05:52:19;24.50;17.60
702;DHT22;334;48.808;9.222;2022-07-21T05:53:22;24.50;17.20
702;DHT22;334;48.808;9.222;2022-07-21T05:54:25;24.50;17.00
702;DHT22;334;48.808;9.222;2022-07-21T05:55:27;24.50;16.80
702;DHT22;334;48.808;9.222;2022-07-21T05:56:29;24.50;16.80
702;DHT22;334;48.808;9.222;2022-07-21T05:57:32;24.60;16.60
702;DHT22;334;48.808;9.222;2022-07-21T05:58:35;24.60;16.70
702;DHT22;334;48.808;9.222;2022-07-21T05:59:37;24.70;16.80
702;DHT22;334;48.808;9.222;2022-07-21T06:00:39;24.80;16.70
702;DHT22;334;48.808;9.222;2022-07-21T06:01:41;24.80;16.80
702;DHT22;334;48.808;9.222;2022-07-21T06:02:45;24.90;17.20
702;DHT22;334;48.808;9.222;2022-07-21T06:03:50;24.90;16.90
702;DHT22;334;48.808;9.222;2022-07-21T06:04:53;25.10;16.50
702;DHT22;334;48.808;9.222;2022-07-21T06:05:55;25.00;16.20
702;DHT22;334;48.808;9.222;2022-07-21T06:06:56;25.20;15.80
702;DHT22;334;48.808;9.222;2022-07-21T06:08:00;25.10;15.60
702;DHT22;334;48.808;9.222;2022-07-21T06:09:05;25.20;15.10
702;DHT22;334;48.808;9.222;2022-07-21T06:10:07;25.20;14.80
702;DHT22;334;48.808;9.222;2022-07-21T06:11:18;25.20;14.30
702;DHT22;334;48.808;9.222;2022-07-21T06:12:21;25.20;14.10
702;DHT22;334;48.808;9.222;2022-07-21T06:13:23;25.30;14.20
702;DHT22;334;48.808;9.222;2022-07-21T06:14:25;25.20;14.20
702;DHT22;334;48.808;9.222;2022-07-21T06:15:27;25.20;14.00
702;DHT22;334;48.808;9.222;2022-07-21T06:16:28;25.20;14.50
702;DHT22;334;48.808;9.222;2022-07-21T06:17:31;25.20;13.60
702;DHT22;334;48.808;9.222;2022-07-21T06:18:34;25.30;13.50
702;DHT22;334;48.808;9.222;2022-07-21T06:19:36;25.40;13.50
702;DHT22;334;48.808;9.222;2022-07-21T06:20:38;25.50;13.60
702;DHT22;334;48.808;9.222;2022-07-21T06:21:41;25.60;12.40
702;DHT22;334;48.808;9.222;2022-07-21T06:22:47;25.60;12.30
702;DHT22;334;48.808;9.222;2022-07-21T06:23:50;25.50;11.50
702;DHT22;334;48.808;9.222;2022-07-21T06:24:52;25.40;11.20
702;DHT22;334;48.808;9.222;2022-07-21T06:25:54;25.30;11.40
702;DHT22;334;48.808;9.222;2022-07-21T06:26:56;25.40;11.70
702;DHT22;334;48.808;9.222;2022-07-21T06:28:06;25.20;12.00
702;DHT22;334;48.808;9.222;2022-07-21T06:29:07;25.30;12.40
702;DHT22;334;48.808;9.222;2022-07-21T06:30:10;25.20;12.50
702;DHT22;334;48.808;9.222;2022-07-21T06:31:12;25.10;12.30
702;DHT22;334;48.808;9.222;2022-07-21T06:32:14;25.00;12.10
702;DHT22;334;48.808;9.222;2022-07-21T06:33:19;25.00;13.20
702;DHT22;334;48.808;9.222;2022-07-21T06:34:26;25.00;13.10
702;DHT22;334;48.808;9.222;2022-07-21T06:35:28;25.00;13.50
702;DHT22;334;48.808;9.222;2022-07-21T06:36:30;25.10;14.00
702;DHT22;334;48.808;9.222;2022-07-21T06:37:31;25.10;14.10
702;DHT22;334;48.808;9.222;2022-07-21T06:38:34;25.20;12.80
702;DHT22;334;48.808;9.222;2022-07-21T06:39:39;25.10;11.20
702;DHT22;334;48.808;9.222;2022-07-21T06:40:43;25.10;11.10
702;DHT22;334;48.808;9.222;2022-07-21T06:41:46;25.20;11.10
702;DHT22;334;48.808;9.222;2022-07-21T06:42:48;25.20;11.00
702;DHT22;334;48.808;9.222;2022-07-21T06:44:09;25.30;10.20
702;DHT22;334;48.808;9.222;2022-07-21T06:45:11;25.10;8.70
702;DHT22;334;48.808;9.222;2022-07-21T06:46:14;25.10;9.10
702;DHT22;334;48.808;9.222;2022-07-21T06:47:16;25.00;9.10
702;DHT22;334;48.808;9.222;2022-07-21T06:48:18;24.90;9.70
702;DHT22;334;48.808;9.222;2022-07-21T06:49:19;24.90;9.50
702;DHT22;334;48.808;9.222;2022-07-21T06:50:21;24.90;9.40
702;DHT22;334;48.808;9.222;2022-07-21T06:51:23;24.90;9.00
702;DHT22;334;48.808;9.222;2022-07-21T06:52:25;24.90;9.30
702;DHT22;334;48.808;9.222;2022-07-21T06:53:27;25.00;8.40
702;DHT22;334;48.808;9.222;2022-07-21T06:54:29;25.00;8.20
702;DHT22;334;48.808;9.222;2022-07-21T06:55:30;25.10;7.60
702;DHT22;334;48.808;9.222;2022-07-21T06:56:32;25.10;7.00
702;DHT22;334;48.808;9.222;2022-07-21T06:57:35;25.10;7.60
702;DHT22;334;48.808;9.222;2022-07-21T06:58:39;25.10;6.80
702;DHT22;334;48.808;9.222;2022-07-21T06:59:46;25.10;6.00
702;DHT22;334;48.808;9.222;2022-07-21T07:00:49;25.10;6.10
702;DHT22;334;48.808;9.222;2022-07-21T07:01:54;25.10;6.30
702;DHT22;334;48.808;9.222;2022-07-21T07:02:57;25.10;6.10
702;DHT22;334;48.808;9.222;2022-07-21T07:03:58;25.10;5.70